خاركوف, Russia

04:37 AM MSK on êواêر 22, 2017 (GMT +0300)
Teatral'na Square | | Change Station

Elev 433 ft 49.99 °N, 36.23 °E | Updated 2 minutes ago

صافية
صافية
29.7 °F
Feels Like 30 °F
N
0.6
ريح متغير ريح from شرق
Gusts 1.2 mph

هذا اليوم
High -- | Low -- °F
--% Chance of Precip.
Yesterday
High -- | Low -- °F
Precip. -- في
الضغط 30.27 في
وضوح الرؤية -9999.0 أميال
سحابات
رياح باردة 30 °F
نقطة الندى 19 °F
الرطوبة 64%
Rainfall Not available.
عمق الثلج Not available.
8:20 AM 5:10 PM
الهلال الأخير, 30% visible
METAR UKHH 220130Z 35004MPS CAVOK M04/M09 Q1025 R25/710760 NOSIG
الضغط 30.27 في
وضوح الرؤية -9999.0 أميال
سحابات
رياح باردة 30 °F
نقطة الندى 19 °F
الرطوبة 64%
Rainfall Not available.
عمق الثلج Not available.
8:20 AM 5:10 PM
الهلال الأخير, 30% visible
METAR UKHH 220130Z 35004MPS CAVOK M04/M09 Q1025 R25/710760 NOSIG

Get Your Daily Forecast Email!

Thanks for signing up!

Be on the lookout for a verification email in your inbox.

You'll start receiving the daily forecast at 8 AM.

×

10-Day Weather Forecast

×

Almanac

علم الفلك

Jan. 22, 2017 Rise Set
Actual Time
Civil Twilight
Nautical Twilight
Astronomical Twilight
قمر
Length Of Visible Light
طول الیوم
Tomorrow will be .
, % of the Moon is Illuminated

Today's Extremes

Country Highs Country Lows

Community

WunderPhotos

Upload Photos

1,962,540 photos uploaded!

WunderBlog® & News

Nearby

جودة الهواء

  جودة الهواء AQ Index Pollutant
Not available.

عمق الثلج

Station Depth Elevation

Earthquake Activity

City Distance Mag. Time & Date
Minimum magnitude displayed is 2.5.

Coastal Water Temperatures

مكان درجات الحرارة

Stations

Nearby Weather Stations

Station Location الحرارة رياح باردة نقطة الندى الرطوبة ريح Precip. Elev تحديث Type